Time;durP1;ratioP1;P1;durP2;ratioP2;P2;SDS_P1;SDS_P2;PMS_P1;PMS_P2;Temp;Humidity;BMP_temperature;BMP_pressure;BME280_temperature;BME280_humidity;BME280_pressure;Samples;Min_cycle;Max_cycle;Signal;HPM_P1;HPM_P2
2022/05/18 00:01:38;;;;;;;11.73;7.07;;;16.50;99.90;;;;;;5072315;28;20113;-63
2022/05/18 00:04:04;;;;;;;11.68;7.93;;;16.50;99.90;;;;;;5053306;28;20048;-63
2022/05/18 00:06:30;;;;;;;12.98;7.85;;;16.50;99.90;;;;;;5054056;28;20417;-63
2022/05/18 00:08:55;;;;;;;11.05;7.40;;;16.90;99.90;;;;;;5053470;28;20040;-63
2022/05/18 00:11:22;;;;;;;10.45;7.93;;;17.80;99.90;;;;;;5071800;28;20491;-63
2022/05/18 00:13:50;;;;;;;12.43;7.90;;;16.40;99.90;;;;;;5071967;28;20071;-63
2022/05/18 00:16:18;;;;;;;10.88;6.75;;;16.20;99.90;;;;;;5053256;28;20490;-63
2022/05/18 00:18:45;;;;;;;13.38;6.82;;;16.40;99.90;;;;;;5072122;28;20054;-63
2022/05/18 00:21:11;;;;;;;10.13;6.97;;;16.40;99.90;;;;;;5071332;28;20124;-63
2022/05/18 00:23:37;;;;;;;10.15;7.22;;;16.40;99.90;;;;;;5036604;28;20059;-63
2022/05/18 00:26:04;;;;;;;9.15;7.43;;;16.30;99.90;;;;;;5053803;28;20536;-63
2022/05/18 00:28:31;;;;;;;11.80;8.38;;;16.30;99.90;;;;;;5053913;28;20049;-63
2022/05/18 00:30:57;;;;;;;10.77;6.95;;;16.30;99.90;;;;;;5070888;28;20098;-63
2022/05/18 00:33:23;;;;;;;10.48;7.43;;;16.30;99.90;;;;;;5071527;28;20040;-63
2022/05/18 00:35:48;;;;;;;11.10;7.00;;;16.30;99.90;;;;;;5054652;28;20044;-63
2022/05/18 00:38:14;;;;;;;10.40;7.40;;;16.30;99.90;;;;;;5056910;28;20048;-63
2022/05/18 00:40:43;;;;;;;12.18;7.30;;;16.20;99.90;;;;;;5075890;28;20040;-63
2022/05/18 00:43:18;;;;;;;15.30;7.88;;;16.40;99.90;;;;;;5075399;28;20051;-63
2022/05/18 00:45:44;;;;;;;10.73;6.78;;;16.30;99.90;;;;;;5075156;28;20044;-63
2022/05/18 00:48:10;;;;;;;10.57;7.05;;;16.20;99.90;;;;;;5074933;28;20113;-63
2022/05/18 00:50:37;;;;;;;11.45;7.40;;;16.20;99.90;;;;;;5076049;28;20037;-63
2022/05/18 00:53:18;;;;;;;9.32;5.93;;;16.10;99.90;;;;;;5074667;28;20033;-63
2022/05/18 00:55:49;;;;;;;11.27;7.15;;;16.20;99.90;;;;;;5057600;28;20041;-63
2022/05/18 00:58:20;;;;;;;11.82;8.38;;;16.10;99.90;;;;;;5074494;28;20140;-63
2022/05/18 01:00:50;;;;;;;10.48;7.32;;;16.10;99.90;;;;;;5057764;28;20080;-63
2022/05/18 01:03:23;;;;;;;12.18;7.22;;;16.10;99.90;;;;;;5057246;28;20044;-63
2022/05/18 01:05:56;;;;;;;9.30;6.03;;;16.10;99.90;;;;;;5056459;28;20048;-63
2022/05/18 01:08:31;;;;;;;11.40;7.57;;;16.10;99.90;;;;;;5040399;28;20127;-63
2022/05/18 01:10:57;;;;;;;11.13;6.53;;;16.10;99.90;;;;;;5040489;28;20497;-63
2022/05/18 01:13:23;;;;;;;10.45;6.50;;;16.10;99.90;;;;;;5056126;28;20072;-63
2022/05/18 01:15:49;;;;;;;12.43;6.78;;;16.00;99.90;;;;;;5074926;28;20040;-63
2022/05/18 01:18:15;;;;;;;10.35;6.95;;;16.00;99.90;;;;;;5074994;28;20040;-63
2022/05/18 01:20:43;;;;;;;13.77;6.43;;;16.10;99.90;;;;;;5074345;28;20044;-63
2022/05/18 01:23:09;;;;;;;11.45;6.50;;;16.00;99.90;;;;;;5074334;28;20064;-63
2022/05/18 01:25:47;;;;;;;8.77;5.70;;;16.00;99.90;;;;;;5075020;28;20041;-63
2022/05/18 01:28:13;;;;;;;9.15;5.75;;;16.00;99.90;;;;;;5055663;28;20048;-63
2022/05/18 01:30:42;;;;;;;9.02;6.85;;;;;;;;;;5057066;28;20051;-63
2022/05/18 01:33:09;;;;;;;13.52;7.38;;;16.00;99.90;;;;;;5074493;28;20056;-63
2022/05/18 01:35:39;;;;;;;10.45;6.63;;;15.90;99.90;;;;;;5055965;28;20037;-63
2022/05/18 01:38:06;;;;;;;13.52;7.20;;;15.90;99.90;;;;;;5074349;28;20032;-63
2022/05/18 01:40:41;;;;;;;10.32;6.38;;;15.90;99.90;;;;;;5056059;28;20055;-63
2022/05/18 01:43:24;;;;;;;10.95;7.00;;;15.90;99.90;;;;;;5056107;28;20049;-63
2022/05/18 01:45:57;;;;;;;13.38;7.55;;;15.80;99.90;;;;;;5056694;28;20524;-63
2022/05/18 01:48:26;;;;;;;11.30;7.20;;;15.80;99.90;;;;;;5055155;28;20044;-63
2022/05/18 01:50:52;;;;;;;10.93;6.60;;;15.80;99.90;;;;;;5056483;28;20569;-63
2022/05/18 01:53:18;;;;;;;12.77;7.18;;;15.80;99.90;;;;;;5039539;28;20499;-63
2022/05/18 01:55:45;;;;;;;10.18;7.97;;;15.70;99.90;;;;;;5055783;28;20166;-63
2022/05/18 01:58:13;;;;;;;11.75;7.50;;;15.80;99.90;;;;;;5039083;28;20052;-63
2022/05/18 02:00:40;;;;;;;10.35;7.15;;;16.20;99.90;;;;;;5074298;28;20043;-63
2022/05/18 02:03:06;;;;;;;11.05;8.40;;;16.20;99.90;;;;;;5072931;28;20090;-63
2022/05/18 02:05:32;;;;;;;11.80;7.43;;;16.00;99.90;;;;;;5056156;28;20127;-63
2022/05/18 02:07:58;;;;;;;11.77;7.90;;;15.90;99.90;;;;;;5073696;28;20048;-63
2022/05/18 02:10:25;;;;;;;11.75;7.05;;;15.80;99.90;;;;;;5055237;28;20040;-63
2022/05/18 02:12:52;;;;;;;10.27;6.55;;;16.20;99.90;;;;;;5074000;28;20044;-63
2022/05/18 02:15:19;;;;;;;8.52;5.90;;;15.90;99.90;;;;;;5055950;28;20040;-63
2022/05/18 02:17:45;;;;;;;11.77;7.07;;;15.80;99.90;;;;;;5073252;28;20082;-63
2022/05/18 02:20:12;;;;;;;12.50;7.55;;;16.20;99.90;;;;;;5055522;28;20048;-63
2022/05/18 02:22:38;;;;;;;10.80;6.78;;;15.80;99.90;;;;;;5072867;28;20052;-63
2022/05/18 02:25:04;;;;;;;11.52;8.05;;;16.30;99.90;;;;;;5073627;28;20514;-63
2022/05/18 02:27:30;;;;;;;8.85;5.95;;;15.20;99.90;;;;;;5073733;28;20040;-63
2022/05/18 02:29:56;;;;;;;13.90;7.07;;;16.00;99.90;;;;;;5072696;28;20425;-63
2022/05/18 02:32:22;;;;;;;10.20;6.38;;;16.00;99.90;;;;;;5055739;28;20044;-63
2022/05/18 02:34:48;;;;;;;11.63;7.43;;;16.00;99.90;;;;;;5073554;28;20075;-63
2022/05/18 02:37:13;;;;;;;11.25;8.13;;;16.20;99.90;;;;;;5054699;28;20469;-63
2022/05/18 02:39:39;;;;;;;10.18;6.50;;;16.00;99.90;;;;;;5073663;28;20036;-63
2022/05/18 02:42:05;;;;;;;10.40;6.38;;;16.10;99.90;;;;;;5038548;28;20114;-63
2022/05/18 02:44:31;;;;;;;11.57;8.30;;;15.50;99.90;;;;;;5072730;28;20044;-63
2022/05/18 02:46:59;;;;;;;10.70;8.02;;;15.40;99.90;;;;;;5055226;28;20045;-63
2022/05/18 02:49:25;;;;;;;10.55;8.13;;;15.50;99.90;;;;;;5072956;28;20060;-63
2022/05/18 02:51:51;;;;;;;12.55;7.60;;;15.40;99.90;;;;;;5072311;28;20201;-63
2022/05/18 02:57:02;;;;;;;12.90;9.13;;;15.30;99.90;;;;;;5055174;28;20048;-63
2022/05/18 02:59:28;;;;;;;12.23;7.30;;;15.30;99.90;;;;;;5071419;28;20040;-63
2022/05/18 03:01:54;;;;;;;16.60;8.57;;;15.50;99.90;;;;;;5055095;28;20041;-63
2022/05/18 03:04:19;;;;;;;10.52;7.50;;;15.60;99.90;;;;;;5072652;28;20040;-63
2022/05/18 03:06:45;;;;;;;11.10;7.68;;;15.30;99.90;;;;;;5054195;28;20033;-63
2022/05/18 03:09:10;;;;;;;11.38;7.50;;;15.40;99.90;;;;;;5054534;28;20040;-63
2022/05/18 03:11:36;;;;;;;9.68;7.72;;;15.00;99.90;;;;;;5055245;28;20036;-63
2022/05/18 03:14:03;;;;;;;15.05;8.80;;;15.40;99.90;;;;;;5071760;28;20040;-63
2022/05/18 03:16:34;;;;;;;11.25;8.57;;;15.20;99.90;;;;;;5072457;28;20044;-63
2022/05/18 03:19:00;;;;;;;10.77;7.15;;;15.20;99.90;;;;;;5054108;28;20509;-63
2022/05/18 03:24:10;;;;;;;12.07;8.03;;;15.20;99.90;;;;;;5054149;28;20048;-63
2022/05/18 03:26:37;;;;;;;9.45;7.18;;;15.20;99.90;;;;;;5054318;28;20052;-63
2022/05/18 03:29:03;;;;;;;11.07;7.00;;;15.70;99.90;;;;;;5072321;28;20043;-63
2022/05/18 03:31:29;;;;;;;13.55;9.43;;;15.70;99.90;;;;;;5072306;28;20608;-63
2022/05/18 03:33:55;;;;;;;14.10;8.68;;;15.20;99.90;;;;;;5071624;28;20119;-63
2022/05/18 03:36:22;;;;;;;13.40;7.68;;;15.60;99.90;;;;;;5072025;28;20048;-63
2022/05/18 03:38:48;;;;;;;16.23;8.85;;;15.10;99.90;;;;;;5054812;28;20037;-63
2022/05/18 03:41:16;;;;;;;10.20;7.45;;;14.90;99.90;;;;;;5053509;28;20042;-63
2022/05/18 03:43:42;;;;;;;14.00;9.23;;;15.10;99.90;;;;;;5054543;28;20056;-64
2022/05/18 03:46:09;;;;;;;11.65;8.27;;;15.30;99.90;;;;;;5071931;28;20032;-63
2022/05/18 03:48:35;;;;;;;12.32;7.82;;;14.70;99.90;;;;;;5071613;28;20044;-63
2022/05/18 03:51:04;;;;;;;14.27;8.02;;;14.80;99.90;;;;;;5054123;28;20047;-63
2022/05/18 03:53:29;;;;;;;12.45;7.78;;;14.90;99.90;;;;;;5054421;28;20115;-63
2022/05/18 03:55:55;;;;;;;12.35;8.00;;;15.70;99.90;;;;;;5053101;28;20116;-63
2022/05/18 03:58:21;;;;;;;12.85;8.60;;;15.20;99.90;;;;;;5072076;28;20385;-63
2022/05/18 04:00:49;;;;;;;11.70;7.38;;;14.90;99.90;;;;;;5054595;28;20032;-63
2022/05/18 04:03:18;;;;;;;11.80;7.97;;;14.90;99.90;;;;;;5071302;28;20115;-63
2022/05/18 04:05:44;;;;;;;11.55;8.10;;;15.20;99.90;;;;;;5054388;28;20052;-63
2022/05/18 04:08:11;;;;;;;12.18;8.25;;;15.00;99.90;;;;;;5070736;28;20037;-63
2022/05/18 04:10:39;;;;;;;11.88;7.50;;;15.60;99.90;;;;;;5053991;28;20036;-63
2022/05/18 04:13:05;;;;;;;11.13;7.55;;;14.80;99.90;;;;;;5071799;28;20371;-63
2022/05/18 04:15:31;;;;;;;10.82;7.53;;;15.40;99.90;;;;;;5071487;28;20078;-63
2022/05/18 04:17:58;;;;;;;10.70;7.43;;;15.20;99.90;;;;;;5054077;28;20079;-64
2022/05/18 04:20:24;;;;;;;11.63;6.95;;;15.80;99.90;;;;;;5071736;28;20044;-63
2022/05/18 04:22:51;;;;;;;13.50;8.57;;;15.30;99.90;;;;;;5070848;28;20063;-63
2022/05/18 04:25:20;;;;;;;12.35;8.20;;;15.70;99.90;;;;;;5071954;28;20051;-63
2022/05/18 04:27:49;;;;;;;12.63;8.80;;;15.20;99.90;;;;;;5072176;28;20048;-63
2022/05/18 04:30:19;;;;;;;12.48;8.15;;;15.50;99.90;;;;;;5053233;28;20041;-63
2022/05/18 04:32:46;;;;;;;14.18;8.48;;;15.40;99.90;;;;;;5053959;28;20046;-63
2022/05/18 04:35:14;;;;;;;14.55;8.50;;;15.80;99.90;;;;;;5071355;28;20051;-63
2022/05/18 04:37:40;;;;;;;13.85;7.90;;;15.50;99.90;;;;;;5071014;28;20076;-63
2022/05/18 04:40:07;;;;;;;15.60;8.93;;;15.60;99.90;;;;;;5071405;28;20041;-63
2022/05/18 04:42:33;;;;;;;12.25;7.85;;;15.60;99.90;;;;;;5053980;28;20053;-63
2022/05/18 04:44:59;;;;;;;17.50;9.27;;;15.70;99.90;;;;;;5052936;28;20047;-63
2022/05/18 04:47:25;;;;;;;13.95;8.10;;;15.70;99.90;;;;;;5053582;28;20614;-63
2022/05/18 04:49:52;;;;;;;16.17;8.77;;;15.50;99.90;;;;;;5037146;28;20404;-63
2022/05/18 04:52:18;;;;;;;11.90;8.27;;;16.40;99.90;;;;;;5036181;28;20045;-63
2022/05/18 04:54:44;;;;;;;11.13;7.65;;;15.90;99.90;;;;;;5054015;28;20042;-63
2022/05/18 04:57:10;;;;;;;13.57;8.30;;;16.30;99.90;;;;;;5071319;28;20119;-63
2022/05/18 04:59:36;;;;;;;13.85;8.20;;;16.50;99.90;;;;;;5070948;28;20135;-63
2022/05/18 05:02:02;;;;;;;11.68;8.73;;;16.50;99.90;;;;;;5071290;28;20101;-63
2022/05/18 05:04:28;;;;;;;10.25;7.63;;;;;;;;;;5052812;28;20469;-63
2022/05/18 05:06:54;;;;;;;15.25;9.52;;;16.20;99.90;;;;;;5071069;28;20532;-63
2022/05/18 05:09:24;;;;;;;14.88;9.27;;;16.20;99.90;;;;;;5071525;28;20029;-63
2022/05/18 05:11:51;;;;;;;13.52;9.98;;;17.10;99.90;;;;;;5052851;28;20106;-63
2022/05/18 05:14:17;;;;;;;13.88;8.82;;;16.70;99.90;;;;;;5053378;28;20048;-64
2022/05/18 05:16:43;;;;;;;11.13;8.73;;;16.80;99.90;;;;;;5053551;28;20504;-63
2022/05/18 05:19:09;;;;;;;17.40;10.02;;;16.70;99.90;;;;;;5070093;28;20048;-63
2022/05/18 05:21:36;;;;;;;12.88;9.70;;;16.70;99.90;;;;;;5053992;28;20496;-63
2022/05/18 05:24:03;;;;;;;12.35;9.05;;;;;;;;;;5056999;28;20060;-63
2022/05/18 05:26:29;;;;;;;12.27;9.52;;;17.00;99.90;;;;;;5073925;28;20127;-63
2022/05/18 05:28:55;;;;;;;11.45;8.77;;;17.10;99.90;;;;;;5056810;28;20064;-63
2022/05/18 05:31:20;;;;;;;14.07;9.27;;;17.20;99.90;;;;;;5074555;28;20094;-63
2022/05/18 05:33:46;;;;;;;13.43;9.35;;;17.30;99.90;;;;;;5074031;28;20090;-63
2022/05/18 05:36:12;;;;;;;13.93;9.40;;;;;;;;;;5074428;28;20086;-63
2022/05/18 05:38:38;;;;;;;11.73;9.30;;;17.50;99.90;;;;;;5057193;28;20044;-63
2022/05/18 05:41:04;;;;;;;16.80;9.80;;;;;;;;;;5055714;28;20169;-63
2022/05/18 05:43:33;;;;;;;14.50;8.65;;;17.70;99.90;;;;;;5056824;28;20061;-63
2022/05/18 05:45:59;;;;;;;19.83;9.68;;;17.80;99.90;;;;;;5056303;28;20577;-63
2022/05/18 05:48:25;;;;;;;14.20;9.73;;;17.80;99.90;;;;;;5055519;28;20131;-63
2022/05/18 05:50:51;;;;;;;13.75;9.85;;;17.90;99.90;;;;;;5056409;28;20040;-63
2022/05/18 05:53:16;;;;;;;14.98;10.45;;;18.00;99.90;;;;;;5074398;28;20033;-63
2022/05/18 05:55:42;;;;;;;18.92;9.82;;;18.20;99.90;;;;;;5055882;28;20043;-63
2022/05/18 05:58:08;;;;;;;14.82;10.90;;;;;;;;;;5073968;28;20044;-63
2022/05/18 06:00:34;;;;;;;10.73;8.15;;;;;;;;;;5074239;28;20040;-63
2022/05/18 06:03:00;;;;;;;13.15;9.80;;;;;;;;;;5055549;28;20045;-64
2022/05/18 06:05:25;;;;;;;12.88;9.35;;;18.80;99.90;;;;;;5056363;28;20052;-64
2022/05/18 06:07:51;;;;;;;16.73;11.38;;;19.10;99.90;;;;;;5055116;28;20485;-63
2022/05/18 06:10:17;;;;;;;13.05;10.48;;;19.30;99.90;;;;;;5056377;28;20089;-64
2022/05/18 06:12:42;;;;;;;15.63;11.52;;;19.00;99.90;;;;;;5056523;28;20473;-63
2022/05/18 06:15:08;;;;;;;13.43;10.18;;;19.00;99.90;;;;;;5072529;28;20045;-64
2022/05/18 06:17:34;;;;;;;17.77;11.30;;;19.00;99.90;;;;;;5074006;28;20562;-64
2022/05/18 06:20:00;;;;;;;13.38;10.98;;;19.40;99.90;;;;;;5056174;28;20087;-64
2022/05/18 06:22:26;;;;;;;14.23;11.85;;;;;;;;;;5072873;28;20056;-64
2022/05/18 06:24:53;;;;;;;12.13;10.20;;;;;;;;;;5055679;28;20055;-64
2022/05/18 06:27:22;;;;;;;15.80;11.65;;;;;;;;;;5055624;28;20051;-63
2022/05/18 06:29:48;;;;;;;16.70;11.23;;;;;;;;;;5073063;28;20036;-64
2022/05/18 06:32:15;;;;;;;14.13;11.32;;;;;;;;;;5073346;28;20048;-64
2022/05/18 06:34:41;;;;;;;15.80;11.68;;;;;;;;;;5054879;28;20492;-64
2022/05/18 06:37:07;;;;;;;16.55;12.15;;;;;;;;;;5072355;28;20044;-64
2022/05/18 06:39:34;;;;;;;17.27;11.77;;;;;;;;;;5056055;28;20054;-64
2022/05/18 06:42:00;;;;;;;13.27;11.88;;;19.70;99.90;;;;;;5055420;28;20053;-63
2022/05/18 06:44:26;;;;;;;18.52;12.13;;;19.70;99.90;;;;;;5072471;28;20040;-63
2022/05/18 06:46:52;;;;;;;17.85;12.55;;;19.80;99.90;;;;;;5073056;28;20045;-64
2022/05/18 06:49:19;;;;;;;17.92;12.05;;;19.90;99.90;;;;;;5073266;28;20119;-63
2022/05/18 06:51:46;;;;;;;18.85;12.25;;;20.00;99.90;;;;;;5038037;28;20047;-64
2022/05/18 06:54:13;;;;;;;15.05;12.73;;;20.00;99.90;;;;;;5054926;28;20048;-64
2022/05/18 06:56:41;;;;;;;20.00;13.25;;;20.20;99.90;;;;;;5055438;28;20048;-64
2022/05/18 06:59:09;;;;;;;16.75;12.73;;;20.20;99.90;;;;;;5054063;28;20097;-64
2022/05/18 07:01:35;;;;;;;19.08;12.30;;;20.10;99.90;;;;;;5073042;28;20059;-64
2022/05/18 07:04:03;;;;;;;16.80;12.63;;;20.20;99.90;;;;;;5072278;28;20037;-64
2022/05/18 07:06:34;;;;;;;15.43;12.82;;;20.20;99.90;;;;;;5054800;28;20049;-64
2022/05/18 07:08:59;;;;;;;16.70;12.80;;;20.40;99.90;;;;;;5054999;28;20120;-64
2022/05/18 07:11:26;;;;;;;19.50;12.95;;;20.40;99.90;;;;;;5054346;28;20094;-64
2022/05/18 07:13:53;;;;;;;15.23;11.75;;;20.40;99.90;;;;;;5054896;28;20501;-64
2022/05/18 07:16:19;;;;;;;15.40;11.50;;;;;;;;;;5054697;28;20040;-64
2022/05/18 07:18:47;;;;;;;17.30;13.52;;;;;;;;;;5072112;28;20032;-64
2022/05/18 07:21:14;;;;;;;17.67;13.13;;;;;;;;;;5072436;28;20047;-64
2022/05/18 07:23:40;;;;;;;17.63;12.07;;;;;;;;;;5072819;28;20060;-64
2022/05/18 07:26:07;;;;;;;15.43;9.60;;;21.20;99.90;;;;;;5071307;28;20402;-64
2022/05/18 07:28:33;;;;;;;13.82;8.95;;;21.20;99.90;;;;;;5054570;28;20106;-64
2022/05/18 07:30:59;;;;;;;18.35;11.60;;;;;;;;;;5072287;28;20433;-64
2022/05/18 07:33:26;;;;;;;17.73;9.90;;;21.40;99.90;;;;;;5070742;28;20037;-64
2022/05/18 07:35:54;;;;;;;13.95;9.25;;;21.50;99.90;;;;;;5057719;28;20508;-64
2022/05/18 07:38:22;;;;;;;14.07;9.70;;;21.50;99.90;;;;;;5058705;28;20113;-64
2022/05/18 07:40:49;;;;;;;12.70;8.82;;;21.60;99.90;;;;;;5070092;28;20045;-64
2022/05/18 07:43:17;;;;;;;14.02;9.32;;;21.70;99.90;;;;;;5052840;28;20040;-64
2022/05/18 07:45:44;;;;;;;15.23;9.35;;;21.90;99.90;;;;;;5053753;28;20470;-64
2022/05/18 07:48:10;;;;;;;11.30;7.82;;;22.00;99.90;;;;;;5052811;28;20045;-64
2022/05/18 07:50:36;;;;;;;14.55;8.23;;;22.20;99.90;;;;;;5053534;28;20036;-64
2022/05/18 07:53:02;;;;;;;13.32;8.48;;;;;;;;;;5072335;28;20040;-64
2022/05/18 07:55:29;;;;;;;11.10;8.23;;;;;;;;;;5068251;28;20071;-63
2022/05/18 08:00:46;;;;;;;14.43;9.88;;;22.60;99.90;;;;;;5065006;28;20126;-64
2022/05/18 08:03:13;;;;;;;14.85;10.02;;;22.70;99.90;;;;;;5045745;28;20272;-64
2022/05/18 08:05:44;;;;;;;14.82;10.43;;;22.30;99.90;;;;;;5026241;28;20049;-64
2022/05/18 08:08:14;;;;;;;12.57;10.20;;;22.60;99.90;;;;;;5048965;28;20060;-64
2022/05/18 08:16:10;;;;;;;16.20;10.65;;;22.60;99.90;;;;;;5052875;28;20078;-64
2022/05/18 08:18:36;;;;;;;17.00;11.52;;;22.70;99.90;;;;;;5059769;28;20144;-64
2022/05/18 08:21:02;;;;;;;14.90;10.77;;;22.80;99.90;;;;;;5056477;28;20393;-64
2022/05/18 08:23:28;;;;;;;16.13;10.55;;;22.70;99.90;;;;;;5062933;28;20045;-65
2022/05/18 08:25:57;;;;;;;19.10;12.40;;;22.70;99.90;;;;;;5060205;28;20051;-65
2022/05/18 08:28:24;;;;;;;18.75;12.25;;;;;;;;;;5067259;28;20503;-65
2022/05/18 08:30:50;;;;;;;16.25;11.23;;;;;;;;;;5054389;28;20390;-66
2022/05/18 08:33:16;;;;;;;22.70;12.02;;;23.00;99.90;;;;;;5041547;28;20057;-66
2022/05/18 08:35:44;;;;;;;17.67;11.93;;;;;;;;;;5033993;28;20057;-65
2022/05/18 08:38:11;;;;;;;17.27;12.68;;;23.20;99.90;;;;;;5068859;28;20181;-64
2022/05/18 08:40:45;;;;;;;17.48;13.00;;;23.20;99.90;;;;;;5051396;28;20462;-64
2022/05/18 08:43:31;;;;;;;15.48;11.27;;;23.20;99.90;;;;;;5048541;28;20051;-65
2022/05/18 08:46:17;;;;;;;19.65;14.15;;;23.30;99.90;;;;;;5082115;28;20040;-64
2022/05/18 08:48:45;;;;;;;17.95;14.32;;;23.30;99.90;;;;;;5065076;28;20032;-64
2022/05/18 08:51:27;;;;;;;17.38;12.43;;;23.30;99.90;;;;;;5062770;28;20124;-65
2022/05/18 08:54:20;;;;;;;18.67;13.30;;;23.30;99.90;;;;;;5040016;28;20045;-64
2022/05/18 08:56:46;;;;;;;18.80;13.43;;;23.30;99.90;;;;;;5033687;28;20391;-65
2022/05/18 08:59:33;;;;;;;16.83;13.93;;;23.30;99.90;;;;;;5052855;28;20037;-64
2022/05/18 09:02:02;;;;;;;18.45;14.15;;;23.40;99.90;;;;;;5057877;28;20040;-65
2022/05/18 09:04:51;;;;;;;18.70;13.85;;;23.40;99.90;;;;;;5050209;28;20044;-65
2022/05/18 09:07:22;;;;;;;21.15;14.10;;;23.50;99.90;;;;;;5051210;28;20409;-64
2022/05/18 09:10:13;;;;;;;17.83;13.75;;;23.50;99.90;;;;;;5071410;28;20097;-64
2022/05/18 09:12:42;;;;;;;19.85;14.30;;;23.50;99.90;;;;;;5053348;28;20051;-64
2022/05/18 09:15:10;;;;;;;22.33;13.75;;;23.50;99.90;;;;;;5045274;28;20075;-63
2022/05/18 09:17:53;;;;;;;22.90;14.10;;;23.50;99.90;;;;;;5069751;28;20085;-63
2022/05/18 09:20:49;;;;;;;19.70;13.93;;;23.60;99.90;;;;;;5048583;28;20139;-63
2022/05/18 09:23:33;;;;;;;20.75;14.80;;;;;;;;;;5063388;28;20071;-63
2022/05/18 09:26:15;;;;;;;22.05;14.25;;;;;;;;;;5038333;28;20482;-63
2022/05/18 09:28:53;;;;;;;16.17;12.77;;;;;;;;;;5048924;28;20139;-63
2022/05/18 09:31:40;;;;;;;17.30;12.07;;;24.30;99.90;;;;;;5063081;28;20086;-63
2022/05/18 09:34:16;;;;;;;17.75;11.63;;;;;;;;;;5045296;28;20063;-63
2022/05/18 09:36:49;;;;;;;17.00;11.02;;;;;;;;;;5064846;28;20087;-63
2022/05/18 09:39:52;;;;;;;13.80;11.68;;;24.50;99.90;;;;;;5066659;28;20075;-63
2022/05/18 09:42:23;;;;;;;18.77;13.10;;;24.50;99.90;;;;;;5048154;28;20059;-63
2022/05/18 09:45:10;;;;;;;17.38;11.93;;;24.50;99.90;;;;;;5059858;28;20568;-63
2022/05/18 09:47:56;;;;;;;14.52;12.25;;;24.90;99.90;;;;;;5042187;28;20045;-63
2022/05/18 09:50:22;;;;;;;16.67;11.43;;;24.80;99.90;;;;;;5052937;28;20160;-63
2022/05/18 09:52:50;;;;;;;21.02;13.85;;;24.80;99.90;;;;;;5051358;28;22189;-63
2022/05/18 09:55:20;;;;;;;19.15;15.00;;;24.70;99.90;;;;;;5052171;28;20043;-63
2022/05/18 09:57:57;;;;;;;23.75;15.88;;;24.70;99.90;;;;;;5048838;28;20359;-64
2022/05/18 10:00:27;;;;;;;21.17;16.20;;;24.60;99.90;;;;;;5068601;28;20393;-63
2022/05/18 10:08:33;;;;;;;17.25;13.52;;;24.20;99.90;;;;;;5066094;28;20478;-62
2022/05/18 10:11:06;;;;;;;18.98;14.02;;;23.70;99.90;;;;;;5056009;28;20037;-62
2022/05/18 10:13:36;;;;;;;20.45;14.45;;;23.80;99.90;;;;;;5056337;28;20036;-62
2022/05/18 10:16:22;;;;;;;17.20;12.70;;;23.70;99.90;;;;;;5054873;28;20037;-62
2022/05/18 10:18:53;;;;;;;18.83;13.25;;;23.70;99.90;;;;;;5039209;28;20047;-62
2022/05/18 10:21:43;;;;;;;21.35;14.60;;;23.90;99.90;;;;;;5054234;28;20036;-63
2022/05/18 10:24:35;;;;;;;16.80;13.63;;;24.00;99.90;;;;;;5073261;28;20401;-62
2022/05/18 10:27:16;;;;;;;17.15;15.27;;;24.10;99.90;;;;;;5055356;28;20177;-62
2022/05/18 10:30:05;;;;;;;17.40;13.38;;;24.10;99.90;;;;;;5072910;28;20044;-62
2022/05/18 10:32:32;;;;;;;18.27;11.40;;;24.10;99.90;;;;;;5048195;28;20052;-62
2022/05/18 10:35:00;;;;;;;12.32;8.98;;;24.20;99.90;;;;;;5054374;28;20040;-62
2022/05/18 10:37:31;;;;;;;15.13;9.65;;;24.40;99.90;;;;;;5055186;28;20841;-62
2022/05/18 10:40:00;;;;;;;10.13;7.85;;;24.50;99.90;;;;;;5052226;28;20063;-62
2022/05/18 10:42:54;;;;;;;14.68;8.98;;;24.50;99.90;;;;;;5040759;28;20044;-64
2022/05/18 10:45:27;;;;;;;19.30;9.38;;;;;;;;;;5016706;28;20444;-64
2022/05/18 10:48:03;;;;;;;14.65;9.00;;;25.00;99.90;;;;;;5069586;28;20056;-64
2022/05/18 10:50:37;;;;;;;13.10;8.60;;;25.00;99.90;;;;;;5046882;28;20033;-65
2022/05/18 10:53:12;;;;;;;14.90;8.85;;;;;;;;;;5046213;28;20036;-65
2022/05/18 10:55:41;;;;;;;11.93;7.28;;;;;;;;;;5050408;28;20044;-65
2022/05/18 10:58:13;;;;;;;11.73;7.30;;;;;;;;;;5069514;28;20040;-64
2022/05/18 11:00:50;;;;;;;11.98;7.20;;;25.80;99.90;;;;;;5052918;28;20131;-64
2022/05/18 11:03:38;;;;;;;11.45;7.63;;;25.70;99.90;;;;;;5052196;28;20532;-65
2022/05/18 11:06:18;;;;;;;16.35;12.43;;;25.80;99.90;;;;;;5038337;28;20090;-65
2022/05/18 11:08:43;;;;;;;11.52;8.63;;;25.70;99.90;;;;;;5070185;28;20039;-65
2022/05/18 11:11:22;;;;;;;20.27;15.65;;;25.70;99.90;;;;;;5051891;28;20182;-64
2022/05/18 11:13:54;;;;;;;21.77;15.73;;;25.70;99.90;;;;;;5052462;28;20044;-65
2022/05/18 11:16:55;;;;;;;20.88;16.27;;;25.50;99.90;;;;;;5051428;28;20041;-65
2022/05/18 11:19:56;;;;;;;24.27;15.45;;;25.50;99.90;;;;;;5068299;28;20041;-64
2022/05/18 11:22:21;;;;;;;21.73;17.50;;;25.30;99.90;;;;;;5050300;28;20057;-65
2022/05/18 11:25:04;;;;;;;18.75;15.52;;;25.20;99.90;;;;;;5069527;28;20052;-66
2022/05/18 11:27:46;;;;;;;20.40;15.48;;;25.20;99.90;;;;;;5052205;28;20040;-67
2022/05/18 11:30:15;;;;;;;18.33;14.50;;;;;;;;;;5068500;28;20044;-64
2022/05/18 11:32:46;;;;;;;19.33;11.95;;;25.10;99.90;;;;;;5050802;28;20032;-65
2022/05/18 11:35:21;;;;;;;18.58;13.43;;;25.10;99.90;;;;;;5068295;28;20072;-67
2022/05/18 11:38:17;;;;;;;20.95;12.50;;;24.90;99.90;;;;;;5057200;28;20472;-67
2022/05/18 11:41:05;;;;;;;16.98;12.13;;;24.80;99.90;;;;;;5068634;28;20087;-66
2022/05/18 11:43:37;;;;;;;16.52;11.60;;;24.80;99.90;;;;;;5069771;28;20051;-65
2022/05/18 11:46:05;;;;;;;17.42;11.23;;;24.80;99.90;;;;;;5049462;28;20048;-65
2022/05/18 11:48:41;;;;;;;17.02;10.52;;;25.00;99.90;;;;;;5069539;28;20052;-64
2022/05/18 11:51:11;;;;;;;15.27;11.05;;;;;;;;;;5037521;28;20044;-65
2022/05/18 11:53:45;;;;;;;18.73;12.63;;;25.40;99.90;;;;;;5066010;28;20037;-63
2022/05/18 11:56:17;;;;;;;;;;;25.40;99.90;;;;;;5070584;28;20036;-64
2022/05/18 12:02:25;;;;;;;14.35;8.23;;;25.20;99.90;;;;;;5071361;28;20051;-65
2022/05/18 12:05:13;;;;;;;11.70;7.20;;;25.20;99.90;;;;;;5060626;28;20124;-64
2022/05/18 12:07:58;;;;;;;14.63;10.60;;;25.60;99.90;;;;;;5027333;28;20489;-63
2022/05/18 12:10:25;;;;;;;;;;;25.80;99.90;;;;;;5070422;28;20076;-64
2022/05/18 12:13:15;;;;;;;24.40;16.10;;;25.30;99.90;;;;;;5053658;28;19973;-64
2022/05/18 12:15:57;;;;;;;22.15;17.08;;;24.70;99.90;;;;;;5070489;28;20047;-63
2022/05/18 12:19:00;;;;;;;28.98;17.90;;;24.70;99.90;;;;;;5053698;28;20045;-64
2022/05/18 12:21:40;;;;;;;21.90;18.13;;;24.40;99.90;;;;;;5070991;28;20040;-64
2022/05/18 12:24:07;;;;;;;24.17;19.60;;;24.10;99.90;;;;;;5053502;28;20107;-64
2022/05/18 12:26:38;;;;;;;20.73;15.80;;;24.00;99.90;;;;;;5072006;28;20055;-64
2022/05/18 12:29:05;;;;;;;29.10;18.88;;;23.90;99.90;;;;;;5071231;28;20464;-64
2022/05/18 12:31:33;;;;;;;23.45;17.40;;;24.20;99.90;;;;;;5074380;28;20418;-64
2022/05/18 12:34:04;;;;;;;25.02;17.48;;;23.70;99.90;;;;;;5057902;28;20541;-64
2022/05/18 12:36:44;;;;;;;24.70;17.42;;;23.70;99.90;;;;;;5057326;28;20041;-63
2022/05/18 12:39:14;;;;;;;24.08;17.35;;;23.70;99.90;;;;;;5075735;28;20043;-64
2022/05/18 12:41:46;;;;;;;24.50;17.80;;;23.70;99.90;;;;;;5057304;28;20119;-63
2022/05/18 12:44:54;;;;;;;27.88;19.25;;;23.80;99.90;;;;;;5057758;28;20052;-63
2022/05/18 12:47:24;;;;;;;27.98;18.55;;;23.50;99.90;;;;;;5027410;28;20044;-65
2022/05/18 12:49:57;;;;;;;27.15;20.15;;;23.60;99.90;;;;;;5074879;28;20040;-64
2022/05/18 12:53:01;;;;;;;29.73;19.65;;;23.10;99.90;;;;;;5057620;28;20090;-63
2022/05/18 12:55:54;;;;;;;23.52;19.00;;;22.90;99.90;;;;;;5075351;28;20033;-64
2022/05/18 12:58:25;;;;;;;27.60;17.75;;;22.90;99.90;;;;;;5057755;28;20048;-64
2022/05/18 13:01:05;;;;;;;25.60;17.95;;;22.90;99.90;;;;;;5040743;28;20481;-64
2022/05/18 13:03:57;;;;;;;27.88;18.98;;;22.70;99.90;;;;;;5074639;28;20055;-63
2022/05/18 13:06:35;;;;;;;25.02;17.00;;;22.40;99.90;;;;;;5075320;28;20465;-63
2022/05/18 13:09:21;;;;;;;25.95;18.25;;;22.40;99.90;;;;;;5040670;28;20052;-63
2022/05/18 13:12:21;;;;;;;24.35;18.63;;;22.40;99.90;;;;;;5040347;28;20152;-64
2022/05/18 13:15:07;;;;;;;29.95;18.98;;;22.30;99.90;;;;;;5056633;28;20036;-63
2022/05/18 13:18:03;;;;;;;24.95;18.70;;;22.20;99.90;;;;;;5056539;28;20497;-63
2022/05/18 13:20:45;;;;;;;27.80;18.55;;;22.10;99.90;;;;;;5074856;28;20045;-63
2022/05/18 13:23:31;;;;;;;30.00;19.42;;;22.00;99.90;;;;;;5074446;28;20064;-63
2022/05/18 13:26:14;;;;;;;25.00;16.48;;;21.90;99.90;;;;;;5039521;28;20559;-63
2022/05/18 13:28:41;;;;;;;22.33;17.10;;;21.90;99.90;;;;;;5057048;28;20124;-63